createdAt,value
2017-12-31T00:00:45.377Z,2.87
2017-12-31T00:03:14.290Z,2.80
2017-12-31T00:05:44.521Z,3.93
2017-12-31T00:08:13.088Z,9.53
2017-12-31T00:10:41.875Z,4.10
2017-12-31T00:13:10.957Z,3.80
2017-12-31T00:15:40.104Z,6.40
2017-12-31T00:18:09.139Z,3.50
2017-12-31T00:20:37.502Z,6.63
2017-12-31T00:23:07.134Z,3.07
2017-12-31T00:25:35.628Z,6.23
2017-12-31T00:28:04.047Z,3.83
2017-12-31T00:30:33.145Z,5.03
2017-12-31T00:33:01.571Z,3.53
2017-12-31T00:35:30.209Z,2.30
2017-12-31T00:37:58.772Z,5.57
2017-12-31T00:40:26.935Z,3.27
2017-12-31T00:42:55.298Z,3.40
2017-12-31T00:45:24.289Z,6.10
2017-12-31T00:47:52.916Z,4.03
2017-12-31T00:50:21.643Z,3.33
2017-12-31T00:52:50.920Z,4.33
2017-12-31T00:55:19.308Z,4.47
2017-12-31T00:57:48.162Z,3.80
2017-12-31T01:00:17.316Z,5.13
2017-12-31T01:02:45.655Z,4.13
2017-12-31T01:05:14.552Z,3.07
2017-12-31T01:07:42.907Z,3.60
2017-12-31T01:10:11.937Z,7.00
2017-12-31T01:12:40.260Z,3.57
2017-12-31T01:15:08.690Z,5.50
2017-12-31T01:17:37.600Z,6.10
2017-12-31T01:20:06.736Z,5.70
2017-12-31T01:22:35.831Z,7.37
2017-12-31T01:25:04.227Z,2.63
2017-12-31T01:27:33.312Z,8.83
2017-12-31T01:30:01.967Z,6.13
2017-12-31T01:32:31.324Z,4.43
2017-12-31T01:34:59.649Z,5.60
2017-12-31T01:37:28.335Z,6.07
2017-12-31T01:39:57.020Z,4.07
2017-12-31T01:42:25.093Z,9.07
2017-12-31T01:44:53.727Z,5.97
2017-12-31T01:47:22.849Z,10.10
2017-12-31T01:49:51.944Z,11.30
2017-12-31T01:52:20.316Z,11.00
2017-12-31T01:54:49.275Z,9.60
2017-12-31T01:57:17.604Z,11.27
2017-12-31T01:59:46.636Z,7.37
2017-12-31T02:02:15.473Z,7.67
2017-12-31T02:04:44.232Z,6.57
2017-12-31T02:07:12.991Z,13.60
2017-12-31T02:09:41.310Z,8.63
2017-12-31T02:12:09.812Z,15.73
2017-12-31T02:14:39.200Z,16.67
2017-12-31T02:17:09.603Z,9.83
2017-12-31T02:19:37.925Z,11.43
2017-12-31T02:22:07.558Z,12.07
2017-12-31T02:24:37.623Z,9.20
2017-12-31T02:27:07.607Z,9.20
2017-12-31T02:29:36.494Z,11.57
2017-12-31T02:32:05.578Z,10.40
2017-12-31T02:34:34.779Z,6.90
2017-12-31T02:37:03.753Z,7.80
2017-12-31T02:39:32.093Z,13.03
2017-12-31T02:42:00.752Z,12.97
2017-12-31T02:44:31.027Z,11.23
2017-12-31T02:46:59.351Z,8.60
2017-12-31T02:49:28.544Z,7.43
2017-12-31T02:51:57.505Z,9.10
2017-12-31T02:54:25.823Z,13.20
2017-12-31T02:56:54.475Z,8.17
2017-12-31T02:59:23.190Z,7.40
2017-12-31T03:01:52.108Z,13.73
2017-12-31T03:04:21.262Z,8.63
2017-12-31T03:06:50.485Z,8.40
2017-12-31T03:09:19.572Z,7.33
2017-12-31T03:11:48.403Z,8.20
2017-12-31T03:14:17.726Z,12.67
2017-12-31T03:16:46.299Z,6.00
2017-12-31T03:19:15.239Z,9.40
2017-12-31T03:21:44.331Z,9.30
2017-12-31T03:24:12.756Z,11.07
2017-12-31T03:26:41.596Z,9.53
2017-12-31T03:29:10.419Z,6.47
2017-12-31T03:31:39.263Z,12.10
2017-12-31T03:34:08.146Z,15.10
2017-12-31T03:36:36.536Z,7.00
2017-12-31T03:39:04.760Z,3.70
2017-12-31T03:41:33.685Z,8.37
2017-12-31T03:44:02.012Z,5.97
2017-12-31T03:46:31.326Z,5.80
2017-12-31T03:49:00.140Z,6.27
2017-12-31T03:51:28.455Z,9.33
2017-12-31T03:53:56.824Z,8.30
2017-12-31T03:56:25.828Z,4.37
2017-12-31T03:58:54.684Z,9.53
2017-12-31T04:01:23.922Z,7.90
2017-12-31T04:03:52.416Z,3.77
2017-12-31T04:06:20.944Z,9.33
2017-12-31T04:08:49.667Z,4.40
2017-12-31T04:11:18.319Z,4.73
2017-12-31T04:13:46.985Z,8.70
2017-12-31T04:16:16.143Z,5.77
2017-12-31T04:18:45.170Z,3.13
2017-12-31T04:21:14.272Z,3.70
2017-12-31T04:23:42.631Z,9.63
2017-12-31T04:26:11.855Z,3.83
2017-12-31T04:28:40.455Z,5.90
2017-12-31T04:31:09.596Z,4.63
2017-12-31T04:33:37.934Z,9.60
2017-12-31T04:36:06.388Z,3.07
2017-12-31T04:38:34.756Z,3.13
2017-12-31T04:41:03.759Z,5.80
2017-12-31T04:43:34.524Z,6.33
2017-12-31T04:46:04.426Z,5.20
2017-12-31T04:48:33.471Z,5.10
2017-12-31T04:51:03.454Z,5.20
2017-12-31T04:53:31.978Z,3.23
2017-12-31T04:56:01.048Z,7.20
2017-12-31T04:58:29.690Z,7.40
2017-12-31T05:00:58.059Z,6.33
2017-12-31T05:03:26.483Z,5.30
2017-12-31T05:05:54.938Z,5.20
2017-12-31T05:08:23.537Z,9.40
2017-12-31T05:10:51.852Z,4.23
2017-12-31T05:13:21.351Z,7.63
2017-12-31T05:15:50.279Z,8.73
2017-12-31T05:18:19.535Z,6.43
2017-12-31T05:20:48.524Z,5.00
2017-12-31T05:23:16.958Z,4.10
2017-12-31T05:25:45.283Z,2.97
2017-12-31T05:28:13.824Z,5.00
2017-12-31T05:30:42.511Z,5.93
2017-12-31T05:33:10.886Z,6.57
2017-12-31T05:35:40.051Z,4.10
2017-12-31T05:38:08.834Z,4.23
2017-12-31T05:40:38.091Z,2.73
2017-12-31T05:43:06.516Z,7.40
2017-12-31T05:45:35.619Z,4.87
2017-12-31T05:48:04.643Z,9.13
2017-12-31T05:50:33.899Z,2.90
2017-12-31T05:53:02.208Z,5.40
2017-12-31T05:55:31.091Z,7.57
2017-12-31T05:58:01.188Z,2.80
2017-12-31T06:00:29.809Z,6.77
2017-12-31T06:02:59.252Z,8.17
2017-12-31T06:05:28.359Z,6.00
2017-12-31T06:07:56.674Z,5.17
2017-12-31T06:10:25.015Z,4.80
2017-12-31T06:12:53.384Z,2.50
2017-12-31T06:15:22.219Z,7.77
2017-12-31T06:17:51.327Z,6.23
2017-12-31T06:20:20.487Z,15.43
2017-12-31T06:22:48.883Z,3.63
2017-12-31T06:25:17.576Z,6.07
2017-12-31T06:27:46.226Z,6.70
2017-12-31T06:30:15.264Z,3.33
2017-12-31T06:32:43.924Z,4.60
2017-12-31T06:35:13.453Z,6.43
2017-12-31T06:37:42.457Z,7.67
2017-12-31T06:40:10.787Z,4.43
2017-12-31T06:42:39.159Z,4.70
2017-12-31T06:45:08.087Z,5.50
2017-12-31T06:47:36.419Z,7.10
2017-12-31T06:50:05.520Z,4.90
2017-12-31T06:52:34.317Z,5.53
2017-12-31T06:55:03.012Z,4.03
2017-12-31T06:57:31.759Z,3.40
2017-12-31T07:00:01.243Z,3.67
2017-12-31T07:02:30.328Z,6.33
2017-12-31T07:04:59.304Z,3.87
2017-12-31T07:07:28.396Z,6.93
2017-12-31T07:09:57.215Z,4.80
2017-12-31T07:12:25.639Z,3.63
2017-12-31T07:14:54.060Z,5.87
2017-12-31T07:17:23.031Z,3.70
2017-12-31T07:19:52.127Z,4.70
2017-12-31T07:22:21.059Z,2.67
2017-12-31T07:24:50.148Z,8.53
2017-12-31T07:27:18.547Z,4.87
2017-12-31T07:29:46.903Z,5.23
2017-12-31T07:32:15.516Z,4.90
2017-12-31T07:34:44.146Z,6.20
2017-12-31T07:37:13.227Z,3.50
2017-12-31T07:39:41.767Z,4.83
2017-12-31T07:42:10.508Z,4.83
2017-12-31T07:44:38.992Z,4.63
2017-12-31T07:47:07.903Z,2.80
2017-12-31T07:49:36.869Z,4.80
2017-12-31T07:52:06.579Z,3.57
2017-12-31T07:54:35.393Z,5.00
2017-12-31T07:57:04.458Z,9.37
2017-12-31T07:59:33.439Z,3.10
2017-12-31T08:02:01.827Z,5.73
2017-12-31T08:04:39.667Z,2.80
2017-12-31T08:07:08.364Z,7.63
2017-12-31T08:09:37.326Z,6.50
2017-12-31T08:12:06.242Z,3.37
2017-12-31T08:14:34.561Z,5.93
2017-12-31T08:17:03.233Z,4.93
2017-12-31T08:19:32.056Z,4.20
2017-12-31T08:22:00.610Z,3.70
2017-12-31T08:24:30.161Z,4.60
2017-12-31T08:27:01.461Z,4.30
2017-12-31T08:29:30.779Z,6.40
2017-12-31T08:31:59.819Z,7.73
2017-12-31T08:34:28.145Z,4.53
2017-12-31T08:36:57.247Z,8.93
2017-12-31T08:39:26.251Z,5.57
2017-12-31T08:41:54.580Z,4.77
2017-12-31T08:44:22.926Z,5.37
2017-12-31T08:46:51.519Z,3.23
2017-12-31T08:49:20.971Z,4.93
2017-12-31T08:51:49.332Z,4.00
2017-12-31T08:54:17.852Z,6.83
2017-12-31T08:56:46.739Z,3.90
2017-12-31T08:59:15.060Z,3.20
2017-12-31T09:01:44.091Z,3.30
2017-12-31T09:04:12.546Z,6.60
2017-12-31T09:06:40.902Z,9.77
2017-12-31T09:09:09.303Z,8.20
2017-12-31T09:11:38.152Z,5.77
2017-12-31T09:14:06.480Z,3.90
2017-12-31T09:16:35.556Z,4.50
2017-12-31T09:19:04.316Z,3.23
2017-12-31T09:21:32.646Z,4.33
2017-12-31T09:24:00.971Z,7.20
2017-12-31T09:26:29.504Z,5.27
2017-12-31T09:28:58.247Z,3.40
2017-12-31T09:31:26.821Z,8.03
2017-12-31T09:33:55.224Z,6.30
2017-12-31T09:36:24.245Z,7.53
2017-12-31T09:38:52.659Z,4.80
2017-12-31T09:41:21.001Z,3.70
2017-12-31T09:43:49.876Z,5.57
2017-12-31T09:46:18.262Z,5.13
2017-12-31T09:48:47.111Z,5.10
2017-12-31T09:51:16.464Z,5.37
2017-12-31T09:53:45.499Z,3.90
2017-12-31T09:56:14.588Z,10.13
2017-12-31T09:58:43.713Z,4.87
2017-12-31T10:01:12.750Z,4.97
2017-12-31T10:03:41.178Z,4.50
2017-12-31T10:06:10.273Z,5.77
2017-12-31T10:08:39.071Z,7.30
2017-12-31T10:11:07.468Z,3.10
2017-12-31T10:13:36.584Z,3.90
2017-12-31T10:16:04.895Z,5.80
2017-12-31T10:18:34.830Z,3.70
2017-12-31T10:21:03.246Z,2.67
2017-12-31T10:23:33.808Z,4.07
2017-12-31T10:26:03.332Z,2.90
2017-12-31T10:28:32.306Z,5.87
2017-12-31T10:31:01.132Z,4.30
2017-12-31T10:33:30.332Z,3.67
2017-12-31T10:35:58.715Z,3.90
2017-12-31T10:38:27.548Z,5.57
2017-12-31T10:40:57.115Z,4.10
2017-12-31T10:43:25.511Z,7.70
2017-12-31T10:45:55.032Z,3.70
2017-12-31T10:48:23.375Z,9.77
2017-12-31T10:50:51.766Z,4.30
2017-12-31T10:53:20.651Z,3.60
2017-12-31T10:55:49.060Z,6.30
2017-12-31T10:58:18.053Z,3.60
2017-12-31T11:00:46.376Z,5.67
2017-12-31T11:03:15.639Z,3.87
2017-12-31T11:05:43.963Z,2.90
2017-12-31T11:08:12.795Z,2.97
2017-12-31T11:13:15.155Z,3.97
2017-12-31T11:15:44.232Z,5.27
2017-12-31T11:18:13.352Z,4.87
2017-12-31T11:20:42.323Z,4.23
2017-12-31T11:23:11.058Z,3.10
2017-12-31T11:25:39.908Z,4.53
2017-12-31T11:28:08.872Z,5.10
2017-12-31T11:30:37.170Z,3.17
2017-12-31T11:33:05.890Z,5.73
2017-12-31T11:35:35.372Z,4.53
2017-12-31T11:38:04.390Z,9.60
2017-12-31T11:40:32.714Z,5.40
2017-12-31T11:43:01.131Z,3.77
2017-12-31T11:45:29.460Z,2.93
2017-12-31T11:47:57.775Z,4.47
2017-12-31T11:50:26.887Z,2.83
2017-12-31T11:52:55.278Z,5.97
2017-12-31T11:55:23.631Z,4.57
2017-12-31T11:57:53.305Z,5.07
2017-12-31T12:00:22.376Z,4.13
2017-12-31T12:02:50.700Z,6.10
2017-12-31T12:05:19.156Z,3.33
2017-12-31T12:07:48.043Z,4.33
2017-12-31T12:10:16.417Z,5.20
2017-12-31T12:12:44.779Z,6.53
2017-12-31T12:15:14.004Z,2.00
2017-12-31T12:17:43.588Z,4.57
2017-12-31T12:20:11.950Z,3.03
2017-12-31T12:22:40.289Z,8.30
2017-12-31T12:25:09.111Z,3.90
2017-12-31T12:27:37.537Z,4.33
2017-12-31T12:30:05.952Z,2.80
2017-12-31T12:32:34.394Z,3.07
2017-12-31T12:35:02.699Z,4.03
2017-12-31T12:37:31.479Z,5.53
2017-12-31T12:40:00.520Z,2.80
2017-12-31T12:42:30.200Z,4.10
2017-12-31T12:44:58.511Z,3.10
2017-12-31T12:47:27.151Z,5.90
2017-12-31T12:49:56.151Z,6.83
2017-12-31T12:52:25.180Z,3.63
2017-12-31T12:54:53.519Z,3.13
2017-12-31T12:57:22.303Z,4.43
2017-12-31T12:59:50.666Z,3.97
2017-12-31T13:02:19.509Z,3.83
2017-12-31T13:04:48.043Z,2.40
2017-12-31T13:07:16.401Z,2.77
2017-12-31T13:09:44.757Z,2.80
2017-12-31T13:12:13.149Z,2.87
2017-12-31T13:14:41.477Z,4.43
2017-12-31T13:17:09.928Z,4.77
2017-12-31T13:19:38.490Z,3.43
2017-12-31T13:22:06.827Z,3.60
2017-12-31T13:24:35.896Z,3.17
2017-12-31T13:27:04.292Z,2.60
2017-12-31T13:29:33.007Z,5.07
2017-12-31T13:32:01.340Z,4.03
2017-12-31T13:34:29.878Z,3.27
2017-12-31T13:36:58.203Z,2.30
2017-12-31T13:39:27.015Z,2.30
2017-12-31T13:41:55.617Z,3.00
2017-12-31T13:44:23.993Z,3.20
2017-12-31T13:46:53.618Z,3.70
2017-12-31T13:49:22.579Z,5.93
2017-12-31T13:51:51.920Z,6.73
2017-12-31T13:54:20.862Z,4.23
2017-12-31T13:56:49.953Z,2.83
2017-12-31T13:59:19.095Z,4.10
2017-12-31T14:01:47.935Z,8.30
2017-12-31T14:04:17.385Z,1.90
2017-12-31T14:06:45.788Z,4.60
2017-12-31T14:09:14.141Z,4.27
2017-12-31T14:11:43.094Z,3.70
2017-12-31T14:14:12.109Z,5.37
2017-12-31T14:16:40.959Z,2.43
2017-12-31T14:19:09.375Z,3.80
2017-12-31T14:21:37.743Z,2.23
2017-12-31T14:24:06.538Z,3.80
2017-12-31T14:26:35.119Z,2.87
2017-12-31T14:29:04.152Z,2.60
2017-12-31T14:31:32.509Z,5.27
2017-12-31T14:34:02.250Z,4.57
2017-12-31T14:36:30.743Z,5.07
2017-12-31T14:38:59.748Z,6.83
2017-12-31T14:41:28.255Z,6.33
2017-12-31T14:43:56.654Z,3.43
2017-12-31T14:46:25.409Z,5.10
2017-12-31T14:48:54.524Z,4.93
2017-12-31T14:51:22.985Z,4.93
2017-12-31T14:53:52.084Z,3.60
2017-12-31T14:56:21.327Z,6.63
2017-12-31T14:58:49.840Z,4.50
2017-12-31T15:01:18.164Z,5.77
2017-12-31T15:03:47.495Z,7.13
2017-12-31T15:06:16.097Z,4.13
2017-12-31T15:08:45.057Z,5.77
2017-12-31T15:11:13.642Z,3.33
2017-12-31T15:13:42.009Z,3.10
2017-12-31T15:16:13.370Z,2.40
2017-12-31T15:18:41.818Z,3.70
2017-12-31T15:21:10.185Z,3.07
2017-12-31T15:23:38.580Z,5.70
2017-12-31T15:26:07.636Z,5.40
2017-12-31T15:28:36.494Z,4.83
2017-12-31T15:31:04.860Z,5.97
2017-12-31T15:33:33.619Z,4.50
2017-12-31T15:36:02.453Z,3.93
2017-12-31T15:38:31.583Z,5.70
2017-12-31T15:40:59.980Z,8.90
2017-12-31T15:43:28.868Z,5.60
2017-12-31T15:45:57.567Z,8.83
2017-12-31T15:48:25.998Z,4.97
2017-12-31T15:50:54.357Z,5.40
2017-12-31T15:53:23.489Z,5.63
2017-12-31T15:55:51.945Z,5.30
2017-12-31T15:58:20.306Z,6.47
2017-12-31T16:00:48.653Z,4.50
2017-12-31T16:03:17.654Z,6.70
2017-12-31T16:05:46.750Z,6.33
2017-12-31T16:08:15.712Z,6.07
2017-12-31T16:10:44.116Z,8.27
2017-12-31T16:13:12.612Z,6.80
2017-12-31T16:15:41.628Z,4.70
2017-12-31T16:18:10.496Z,6.80
2017-12-31T16:20:39.734Z,10.90
2017-12-31T16:23:08.084Z,10.47
2017-12-31T16:25:36.903Z,13.43
2017-12-31T16:28:06.074Z,9.83
2017-12-31T16:30:35.195Z,7.20
2017-12-31T16:33:03.541Z,7.63
2017-12-31T16:35:31.891Z,7.70
2017-12-31T16:38:00.278Z,5.30
2017-12-31T16:40:28.591Z,9.80
2017-12-31T16:42:58.357Z,7.60
2017-12-31T16:45:27.209Z,6.80
2017-12-31T16:47:55.716Z,6.33
2017-12-31T16:50:24.065Z,6.70
2017-12-31T16:52:53.233Z,9.97
2017-12-31T16:55:22.128Z,14.67
2017-12-31T16:57:50.456Z,9.03
2017-12-31T17:00:19.020Z,15.70
2017-12-31T17:02:52.991Z,22.33
2017-12-31T17:05:27.850Z,19.00
2017-12-31T17:07:56.899Z,16.00
2017-12-31T17:10:25.348Z,26.50
2017-12-31T17:12:54.386Z,37.90
2017-12-31T17:15:22.559Z,26.63
2017-12-31T17:17:50.942Z,18.83
2017-12-31T17:20:19.313Z,20.60
2017-12-31T17:22:47.787Z,18.40
2017-12-31T17:25:16.820Z,19.43
2017-12-31T17:27:45.289Z,16.50
2017-12-31T17:30:13.653Z,18.67
2017-12-31T17:32:42.022Z,18.10
2017-12-31T17:35:10.400Z,13.73
2017-12-31T17:37:38.757Z,20.27
2017-12-31T17:40:07.084Z,18.33
2017-12-31T17:42:35.658Z,15.10
2017-12-31T17:45:04.826Z,15.50
2017-12-31T17:47:33.160Z,20.13
2017-12-31T17:50:01.602Z,27.80
2017-12-31T17:52:29.985Z,19.33
2017-12-31T17:54:58.428Z,20.50
2017-12-31T17:57:26.815Z,17.33
2017-12-31T17:59:55.280Z,20.20
2017-12-31T18:02:23.636Z,39.60
2017-12-31T18:04:51.945Z,22.67
2017-12-31T18:07:20.269Z,21.77
2017-12-31T18:09:49.447Z,19.57
2017-12-31T18:12:17.807Z,23.47
2017-12-31T18:14:46.124Z,21.50
2017-12-31T18:17:14.520Z,22.00
2017-12-31T18:19:42.871Z,32.43
2017-12-31T18:22:11.180Z,26.30
2017-12-31T18:24:39.695Z,21.33
2017-12-31T18:27:08.014Z,17.20
2017-12-31T18:29:36.347Z,21.43
2017-12-31T18:32:04.755Z,19.37
2017-12-31T18:34:33.114Z,17.37
2017-12-31T18:37:01.424Z,22.00
2017-12-31T18:39:29.837Z,30.00
2017-12-31T18:41:58.155Z,19.03
2017-12-31T18:44:26.467Z,19.60
2017-12-31T18:46:55.622Z,19.37
2017-12-31T18:49:23.985Z,22.67
2017-12-31T18:51:52.442Z,27.73
2017-12-31T18:54:20.751Z,41.67
2017-12-31T18:56:49.117Z,23.27
2017-12-31T18:59:17.605Z,25.10
2017-12-31T19:01:46.681Z,21.20
2017-12-31T19:04:15.044Z,19.93
2017-12-31T19:06:43.458Z,12.43
2017-12-31T19:09:11.789Z,15.23
2017-12-31T19:11:40.122Z,10.70
2017-12-31T19:14:08.579Z,160.93
2017-12-31T19:16:37.122Z,175.83
2017-12-31T19:19:06.555Z,18.50
2017-12-31T19:21:34.892Z,25.53
2017-12-31T19:24:04.100Z,21.17
2017-12-31T19:26:32.706Z,21.90
2017-12-31T19:29:02.819Z,40.23
2017-12-31T19:31:31.384Z,27.60
2017-12-31T19:34:00.359Z,28.37
2017-12-31T19:36:29.514Z,105.87
2017-12-31T19:38:58.557Z,75.50
2017-12-31T19:41:27.062Z,36.10
2017-12-31T19:43:56.076Z,26.10
2017-12-31T19:46:25.042Z,175.83
2017-12-31T19:48:54.155Z,321.33
2017-12-31T19:51:23.423Z,65.57
2017-12-31T19:53:51.779Z,27.20
2017-12-31T19:56:20.253Z,30.73
2017-12-31T19:58:48.653Z,23.67
2017-12-31T20:01:17.127Z,23.30
2017-12-31T20:03:45.485Z,25.73
2017-12-31T20:06:14.698Z,24.13
2017-12-31T20:08:43.638Z,14.97
2017-12-31T20:11:12.879Z,21.60
2017-12-31T20:13:41.824Z,17.40
2017-12-31T20:16:11.117Z,16.27
2017-12-31T20:18:40.159Z,20.33
2017-12-31T20:21:09.102Z,30.20
2017-12-31T20:23:37.466Z,25.20
2017-12-31T20:26:05.986Z,22.43
2017-12-31T20:28:34.745Z,37.00
2017-12-31T20:31:03.911Z,52.10
2017-12-31T20:33:32.978Z,93.47
2017-12-31T20:36:01.289Z,99.53
2017-12-31T20:38:29.690Z,63.10
2017-12-31T20:40:58.634Z,188.47
2017-12-31T20:43:27.510Z,125.67
2017-12-31T20:45:55.903Z,191.03
2017-12-31T20:48:25.030Z,163.23
2017-12-31T20:50:53.829Z,133.63
2017-12-31T20:53:23.977Z,210.00
2017-12-31T20:55:52.382Z,154.43
2017-12-31T20:58:21.171Z,158.33
2017-12-31T21:00:49.576Z,346.87
2017-12-31T21:03:17.983Z,263.23
2017-12-31T21:05:47.059Z,200.13
2017-12-31T21:08:15.435Z,117.53
2017-12-31T21:10:44.326Z,145.53
2017-12-31T21:13:12.759Z,173.00
2017-12-31T21:15:41.365Z,116.30
2017-12-31T21:18:10.670Z,88.70
2017-12-31T21:20:39.152Z,80.43
2017-12-31T21:23:07.470Z,66.60
2017-12-31T21:25:35.899Z,69.53
2017-12-31T21:28:04.263Z,63.23
2017-12-31T21:30:33.428Z,62.13
2017-12-31T21:33:01.752Z,86.50
2017-12-31T21:35:30.128Z,94.90
2017-12-31T21:37:58.640Z,80.30
2017-12-31T21:40:27.588Z,141.37
2017-12-31T21:42:56.247Z,190.50
2017-12-31T21:45:24.866Z,74.93
2017-12-31T21:47:54.066Z,64.77
2017-12-31T21:50:23.177Z,51.73
2017-12-31T21:52:52.110Z,48.90
2017-12-31T21:55:21.685Z,56.73
2017-12-31T21:57:49.991Z,38.80
2017-12-31T22:00:18.360Z,36.40
2017-12-31T22:02:47.818Z,38.40
2017-12-31T22:05:16.369Z,35.87
2017-12-31T22:07:45.111Z,36.93
2017-12-31T22:10:14.502Z,29.97
2017-12-31T22:12:43.957Z,38.17
2017-12-31T22:15:12.343Z,25.10
2017-12-31T22:17:41.544Z,26.40
2017-12-31T22:20:10.382Z,37.90
2017-12-31T22:22:39.182Z,43.17
2017-12-31T22:25:07.688Z,34.40
2017-12-31T22:27:36.795Z,31.10
2017-12-31T22:30:05.434Z,27.70
2017-12-31T22:32:34.520Z,24.67
2017-12-31T22:35:03.021Z,14.50
2017-12-31T22:37:31.953Z,19.87
2017-12-31T22:40:00.567Z,23.80
2017-12-31T22:42:29.277Z,19.50
2017-12-31T22:44:57.694Z,28.50
2017-12-31T22:47:26.491Z,33.67
2017-12-31T22:49:54.937Z,21.33
2017-12-31T22:52:24.046Z,35.50
2017-12-31T22:54:53.084Z,36.50
2017-12-31T22:57:22.029Z,32.83
2017-12-31T22:59:50.471Z,31.47
2017-12-31T23:02:18.918Z,474.13
2017-12-31T23:04:47.912Z,239.87
2017-12-31T23:07:16.338Z,444.23
2017-12-31T23:09:45.291Z,504.57
2017-12-31T23:12:13.863Z,450.83
2017-12-31T23:14:42.235Z,625.03
2017-12-31T23:17:10.613Z,1118.43
2017-12-31T23:19:39.129Z,1793.97
2017-12-31T23:22:07.521Z,1999.90
2017-12-31T23:24:35.923Z,763.03
2017-12-31T23:27:05.552Z,720.60
2017-12-31T23:29:34.744Z,395.03
2017-12-31T23:32:03.115Z,605.57
2017-12-31T23:34:31.836Z,524.07
2017-12-31T23:37:02.007Z,430.50
2017-12-31T23:39:31.283Z,240.90
2017-12-31T23:41:59.618Z,169.33
2017-12-31T23:47:09.314Z,162.90
2017-12-31T23:49:37.827Z,113.77
2017-12-31T23:52:06.463Z,150.77
2017-12-31T23:54:35.625Z,65.93
2017-12-31T23:57:04.138Z,55.93
2017-12-31T23:59:32.910Z,40.37
